createdAt,value
2023-05-21T00:00:59.446Z,10.2
2023-05-21T00:02:06.056Z,10.2
2023-05-21T00:03:13.767Z,10.2
2023-05-21T00:04:19.708Z,10.2
2023-05-21T00:05:26.893Z,10.2
2023-05-21T00:06:33.948Z,10.2
2023-05-21T00:07:40.594Z,10.2
2023-05-21T00:08:47.614Z,10.2
2023-05-21T00:09:54.669Z,10.2
2023-05-21T00:11:01.830Z,10.2
2023-05-21T00:12:08.957Z,10.2
2023-05-21T00:13:15.526Z,10.2
2023-05-21T00:14:22.575Z,10.2
2023-05-21T00:15:29.699Z,10.2
2023-05-21T00:16:36.805Z,10.2
2023-05-21T00:17:43.918Z,10.2
2023-05-21T00:18:50.485Z,10.2
2023-05-21T00:19:57.653Z,10.2
2023-05-21T00:21:04.717Z,10.2
2023-05-21T00:22:11.765Z,10.2
2023-05-21T00:23:18.912Z,10.2
2023-05-21T00:24:25.574Z,10.2
2023-05-21T00:25:32.649Z,10.2
2023-05-21T00:26:39.726Z,10.2
2023-05-21T00:27:46.924Z,10.2
2023-05-21T00:28:53.917Z,10.2
2023-05-21T00:30:00.504Z,10.2
2023-05-21T00:31:07.667Z,10.2
2023-05-21T00:32:14.755Z,10.2
2023-05-21T00:33:21.822Z,10.2
2023-05-21T00:34:28.965Z,10.2
2023-05-21T00:35:35.767Z,10.2
2023-05-21T00:36:42.606Z,10.2
2023-05-21T00:37:49.721Z,10.2
2023-05-21T00:38:56.886Z,10.2
2023-05-21T00:40:03.896Z,10.2
2023-05-21T00:41:10.497Z,10.2
2023-05-21T00:42:17.628Z,10.2
2023-05-21T00:43:24.805Z,10.2
2023-05-21T00:44:31.823Z,10.2
2023-05-21T00:46:45.566Z,10.2
2023-05-21T00:47:52.713Z,10.2
2023-05-21T00:48:59.845Z,10.2
2023-05-21T00:50:06.854Z,10.2
2023-05-21T00:51:13.971Z,10.2
2023-05-21T00:52:20.511Z,10.2
2023-05-21T00:53:27.658Z,10.3
2023-05-21T00:55:41.809Z,10.2
2023-05-21T00:56:48.962Z,10.2
2023-05-21T00:57:55.567Z,10.2
2023-05-21T00:59:02.662Z,10.2
2023-05-21T01:00:09.735Z,10.2
2023-05-21T01:01:16.904Z,10.2
2023-05-21T01:02:24.186Z,10.2
2023-05-21T01:03:30.726Z,10.2
2023-05-21T01:04:38.201Z,10.2
2023-05-21T01:05:44.769Z,10.2
2023-05-21T01:06:51.845Z,10.2
2023-05-21T01:07:59.016Z,10.2
2023-05-21T01:09:05.649Z,10.2
2023-05-21T01:10:12.673Z,10.2
2023-05-21T01:11:19.772Z,10.2
2023-05-21T01:12:26.860Z,10.2
2023-05-21T01:13:33.952Z,10.3
2023-05-21T01:14:40.516Z,10.2
2023-05-21T01:15:47.717Z,10.2
2023-05-21T01:16:54.803Z,10.2
2023-05-21T01:18:01.933Z,10.2
2023-05-21T01:19:09.044Z,10.2
2023-05-21T01:20:15.610Z,10.2
2023-05-21T01:21:22.667Z,10.2
2023-05-21T01:22:29.783Z,10.2
2023-05-21T01:23:36.907Z,10.2
2023-05-21T01:24:43.479Z,10.2
2023-05-21T01:25:50.576Z,10.2
2023-05-21T01:26:57.689Z,10.2
2023-05-21T01:28:04.851Z,10.2
2023-05-21T01:29:11.888Z,10.2
2023-05-21T01:30:18.497Z,10.2
2023-05-21T01:31:26.108Z,10.2
2023-05-21T01:32:32.693Z,10.2
2023-05-21T01:33:40.028Z,10.2
2023-05-21T01:34:46.866Z,10.2
2023-05-21T01:35:53.475Z,10.2
2023-05-21T01:37:00.553Z,10.2
2023-05-21T01:38:07.738Z,10.2
2023-05-21T01:39:14.892Z,10.2
2023-05-21T01:40:21.910Z,10.2
2023-05-21T01:41:28.493Z,10.2
2023-05-21T01:42:35.609Z,10.2
2023-05-21T01:43:42.823Z,10.1
2023-05-21T01:44:49.847Z,10.1
2023-05-21T01:45:57.080Z,10.1
2023-05-21T01:47:03.508Z,10.1
2023-05-21T01:48:10.570Z,10.1
2023-05-21T01:50:24.919Z,10.1
2023-05-21T01:51:31.929Z,10.1
2023-05-21T01:52:38.476Z,10.1
2023-05-21T01:53:45.648Z,10.1
2023-05-21T01:54:52.692Z,10.1
2023-05-21T01:55:59.854Z,10.1
2023-05-21T01:57:06.944Z,10.1
2023-05-21T01:58:14.077Z,10.1
2023-05-21T01:59:20.607Z,10.1
2023-05-21T02:00:27.763Z,10.1
2023-05-21T02:01:34.931Z,10.1
2023-05-21T02:02:42.012Z,10.1
2023-05-21T02:03:48.636Z,10.1
2023-05-21T02:04:55.630Z,10.1
2023-05-21T02:06:02.748Z,10.1
2023-05-21T02:07:09.832Z,10.1
2023-05-21T02:08:17.467Z,10.1
2023-05-21T02:09:23.589Z,10.1
2023-05-21T02:10:30.668Z,10.1
2023-05-21T02:11:37.750Z,10.1
2023-05-21T02:12:44.901Z,10.1
2023-05-21T02:13:51.936Z,10.1
2023-05-21T02:14:58.567Z,10.1
2023-05-21T02:16:05.719Z,10.1
2023-05-21T02:17:12.746Z,10.1
2023-05-21T02:18:19.916Z,10.1
2023-05-21T02:19:27.048Z,10.1
2023-05-21T02:20:33.593Z,10.1
2023-05-21T02:21:40.658Z,10.1
2023-05-21T02:23:54.955Z,10.1
2023-05-21T02:25:01.948Z,10.1
2023-05-21T02:26:10.549Z,10.1
2023-05-21T02:27:15.714Z,10.1
2023-05-21T02:28:22.770Z,10
2023-05-21T02:29:29.899Z,10
2023-05-21T02:30:36.460Z,10
2023-05-21T02:31:43.573Z,10
2023-05-21T02:32:50.698Z,10
2023-05-21T02:33:57.795Z,10
2023-05-21T02:35:04.904Z,9.9
2023-05-21T02:36:11.433Z,9.9
2023-05-21T02:37:18.578Z,9.9
2023-05-21T02:38:25.681Z,9.9
2023-05-21T02:39:32.837Z,9.9
2023-05-21T02:40:39.893Z,9.9
2023-05-21T02:41:46.509Z,10
2023-05-21T02:42:53.553Z,9.9
2023-05-21T02:44:00.668Z,9.9
2023-05-21T02:45:07.792Z,9.9
2023-05-21T02:46:14.939Z,9.9
2023-05-21T02:47:21.462Z,9.9
2023-05-21T02:48:28.579Z,9.9
2023-05-21T02:49:35.692Z,9.9
2023-05-21T02:50:42.801Z,9.9
2023-05-21T02:51:49.955Z,9.9
2023-05-21T02:54:03.601Z,9.9
2023-05-21T02:55:10.706Z,9.8
2023-05-21T02:56:17.815Z,9.8
2023-05-21T02:57:24.911Z,9.8
2023-05-21T02:58:31.492Z,9.8
2023-05-21T02:59:39.171Z,9.8
2023-05-21T03:00:45.736Z,9.8
2023-05-21T03:01:52.838Z,9.8
2023-05-21T03:03:00.030Z,9.8
2023-05-21T03:04:06.586Z,9.8
2023-05-21T03:05:13.609Z,9.8
2023-05-21T03:06:20.709Z,9.8
2023-05-21T03:07:27.858Z,9.8
2023-05-21T03:08:34.918Z,9.8
2023-05-21T03:09:41.484Z,9.8
2023-05-21T03:10:48.669Z,9.8
2023-05-21T03:11:56.269Z,9.7
2023-05-21T03:13:02.865Z,9.7
2023-05-21T03:14:09.972Z,9.7
2023-05-21T03:15:16.526Z,9.6
2023-05-21T03:16:23.647Z,9.6
2023-05-21T03:17:30.696Z,9.6
2023-05-21T03:18:37.826Z,9.6
2023-05-21T03:19:44.991Z,9.6
2023-05-21T03:20:51.484Z,9.6
2023-05-21T03:21:58.682Z,9.6
2023-05-21T03:23:05.707Z,9.6
2023-05-21T03:24:12.822Z,9.6
2023-05-21T03:25:19.976Z,9.6
2023-05-21T03:26:26.584Z,9.6
2023-05-21T03:27:33.618Z,9.6
2023-05-21T03:28:40.755Z,9.6
2023-05-21T03:29:47.850Z,9.6
2023-05-21T03:30:54.412Z,9.6
2023-05-21T03:32:01.608Z,9.6
2023-05-21T03:33:08.691Z,9.6
2023-05-21T03:34:15.778Z,9.6
2023-05-21T03:35:22.816Z,9.6
2023-05-21T03:36:29.444Z,9.6
2023-05-21T03:37:36.570Z,9.5
2023-05-21T03:38:43.652Z,9.5
2023-05-21T03:39:50.772Z,9.5
2023-05-21T03:40:57.894Z,9.5
2023-05-21T03:42:04.980Z,9.4
2023-05-21T03:43:11.578Z,9.4
2023-05-21T03:44:18.697Z,9.4
2023-05-21T03:45:25.835Z,9.4
2023-05-21T03:46:32.954Z,9.4
2023-05-21T03:47:40.005Z,9.4
2023-05-21T03:48:46.546Z,9.4
2023-05-21T03:49:53.690Z,9.4
2023-05-21T03:52:07.907Z,9.3
2023-05-21T03:53:14.475Z,9.3
2023-05-21T03:54:21.564Z,9.3
2023-05-21T03:55:28.675Z,9.3
2023-05-21T03:57:42.850Z,9.3
2023-05-21T03:58:49.520Z,9.3
2023-05-21T03:59:56.619Z,9.2
2023-05-21T04:01:03.657Z,9.2
2023-05-21T04:02:10.821Z,9.1
2023-05-21T04:03:18.093Z,9.1
2023-05-21T04:04:24.549Z,9.1
2023-05-21T04:05:31.578Z,9.1
2023-05-21T04:06:38.726Z,9.1
2023-05-21T04:07:45.787Z,9
2023-05-21T04:08:52.911Z,9
2023-05-21T04:09:59.458Z,8.9
2023-05-21T04:11:06.737Z,8.9
2023-05-21T04:12:13.668Z,8.8
2023-05-21T04:13:20.790Z,8.8
2023-05-21T04:14:27.925Z,8.8
2023-05-21T04:15:35.769Z,8.8
2023-05-21T04:16:41.596Z,8.7
2023-05-21T04:17:48.790Z,8.7
2023-05-21T04:18:55.817Z,8.6
2023-05-21T04:20:02.907Z,8.6
2023-05-21T04:21:09.531Z,8.6
2023-05-21T04:22:16.647Z,8.6
2023-05-21T04:23:23.994Z,8.6
2023-05-21T04:24:30.884Z,8.5
2023-05-21T04:25:37.993Z,8.5
2023-05-21T04:26:44.481Z,8.5
2023-05-21T04:27:52.129Z,8.5
2023-05-21T04:28:58.719Z,8.5
2023-05-21T04:30:05.816Z,8.5
2023-05-21T04:31:13.018Z,8.5
2023-05-21T04:32:19.579Z,8.5
2023-05-21T04:33:26.640Z,8.5
2023-05-21T04:34:33.804Z,8.5
2023-05-21T04:35:40.872Z,8.5
2023-05-21T04:36:47.933Z,8.5
2023-05-21T04:37:54.508Z,8.5
2023-05-21T04:39:01.594Z,8.5
2023-05-21T04:40:08.750Z,8.6
2023-05-21T04:41:15.884Z,8.6
2023-05-21T04:42:22.915Z,8.6
2023-05-21T04:43:29.562Z,8.6
2023-05-21T04:44:36.633Z,8.6
2023-05-21T04:45:43.707Z,8.6
2023-05-21T04:46:50.910Z,8.6
2023-05-21T04:47:58.039Z,8.7
2023-05-21T04:49:04.571Z,8.7
2023-05-21T04:50:11.672Z,8.7
2023-05-21T04:51:18.772Z,8.8
2023-05-21T04:52:25.905Z,8.8
2023-05-21T04:53:32.449Z,8.8
2023-05-21T04:54:39.594Z,8.8
2023-05-21T04:55:46.659Z,8.8
2023-05-21T04:56:53.756Z,8.8
2023-05-21T04:58:00.902Z,8.8
2023-05-21T04:59:07.567Z,8.8
2023-05-21T05:01:21.754Z,8.9
2023-05-21T05:02:28.794Z,8.9
2023-05-21T05:03:35.917Z,8.9
2023-05-21T05:04:42.449Z,8.9
2023-05-21T05:05:49.580Z,8.9
2023-05-21T05:06:56.678Z,8.9
2023-05-21T05:08:03.766Z,9
2023-05-21T05:09:10.939Z,9
2023-05-21T05:10:17.489Z,9.1
2023-05-21T05:11:24.556Z,9.1
2023-05-21T05:12:31.687Z,9.1
2023-05-21T05:13:38.813Z,9.1
2023-05-21T05:14:45.922Z,9.1
2023-05-21T05:15:54.424Z,9.2
2023-05-21T05:16:59.592Z,9.2
2023-05-21T05:18:06.736Z,9.2
2023-05-21T05:20:20.890Z,9.3
2023-05-21T05:21:27.525Z,9.3
2023-05-21T05:22:34.630Z,9.3
2023-05-21T05:23:41.709Z,9.3
2023-05-21T05:24:48.870Z,9.3
2023-05-21T05:25:55.912Z,9.4
2023-05-21T05:27:02.458Z,9.4
2023-05-21T05:28:09.601Z,9.4
2023-05-21T05:29:16.739Z,9.4
2023-05-21T05:30:23.849Z,9.4
2023-05-21T05:31:30.988Z,9.5
2023-05-21T05:32:37.529Z,9.6
2023-05-21T05:33:44.590Z,9.6
2023-05-21T05:34:51.674Z,9.6
2023-05-21T05:35:58.898Z,9.7
2023-05-21T05:37:05.927Z,9.7
2023-05-21T05:38:12.508Z,9.7
2023-05-21T05:39:19.639Z,9.8
2023-05-21T05:40:26.754Z,9.8
2023-05-21T05:41:33.906Z,9.8
2023-05-21T05:42:40.921Z,9.8
2023-05-21T05:43:47.528Z,9.8
2023-05-21T05:44:54.607Z,9.8
2023-05-21T05:46:01.777Z,9.9
2023-05-21T05:47:08.892Z,9.9
2023-05-21T05:48:15.932Z,9.9
2023-05-21T05:49:22.490Z,9.9
2023-05-21T05:50:29.637Z,10
2023-05-21T05:51:36.736Z,10
2023-05-21T05:52:43.877Z,10
2023-05-21T05:53:50.915Z,10
2023-05-21T05:54:57.514Z,10.1
2023-05-21T05:56:05.190Z,10.1
2023-05-21T05:57:11.707Z,10.1
2023-05-21T05:58:18.929Z,10.1
2023-05-21T05:59:25.941Z,10.1
2023-05-21T06:00:32.529Z,10.1
2023-05-21T06:01:39.653Z,10.2
2023-05-21T06:02:46.854Z,10.2
2023-05-21T06:05:00.917Z,10.2
2023-05-21T06:06:10.660Z,10.3
2023-05-21T06:07:14.667Z,10.3
2023-05-21T06:08:21.729Z,10.4
2023-05-21T06:09:28.853Z,10.4
2023-05-21T06:10:35.516Z,10.4
2023-05-21T06:11:42.515Z,10.4
2023-05-21T06:12:49.642Z,10.4
2023-05-21T06:13:56.808Z,10.4
2023-05-21T06:15:03.857Z,10.5
2023-05-21T06:16:10.705Z,10.5
2023-05-21T06:17:17.585Z,10.5
2023-05-21T06:18:24.676Z,10.5
2023-05-21T06:19:31.795Z,10.4
2023-05-21T06:20:38.893Z,10.4
2023-05-21T06:21:45.432Z,10.4
2023-05-21T06:22:53.604Z,10.4
2023-05-21T06:23:59.714Z,10.5
2023-05-21T06:25:06.870Z,10.5
2023-05-21T06:26:13.864Z,10.5
2023-05-21T06:27:20.470Z,10.5
2023-05-21T06:28:27.590Z,10.6
2023-05-21T06:29:34.693Z,10.7
2023-05-21T06:30:41.806Z,10.8
2023-05-21T06:31:48.963Z,11
2023-05-21T06:32:55.561Z,11.1
2023-05-21T06:34:02.740Z,11.2
2023-05-21T06:35:09.735Z,11.5
2023-05-21T06:36:16.851Z,11.6
2023-05-21T06:37:25.933Z,11.8
2023-05-21T06:38:30.477Z,11.9
2023-05-21T06:39:37.614Z,12.1
2023-05-21T06:40:44.728Z,12.2
2023-05-21T06:41:51.767Z,12.4
2023-05-21T06:42:58.925Z,12.5
2023-05-21T06:44:05.448Z,12.5
2023-05-21T06:45:12.585Z,12.6
2023-05-21T06:46:19.731Z,12.6
2023-05-21T06:48:33.893Z,12.8
2023-05-21T06:49:40.514Z,12.8
2023-05-21T06:50:47.649Z,12.9
2023-05-21T06:51:54.740Z,13.1
2023-05-21T06:53:01.772Z,13.2
2023-05-21T06:54:08.943Z,13.3
2023-05-21T06:55:15.507Z,13.5
2023-05-21T06:56:22.593Z,13.6
2023-05-21T06:57:29.708Z,13.7
2023-05-21T06:58:36.831Z,13.8
2023-05-21T06:59:43.950Z,14
2023-05-21T07:00:50.506Z,14
2023-05-21T07:01:57.638Z,14.1
2023-05-21T07:03:04.816Z,14.2
2023-05-21T07:04:11.838Z,14.3
2023-05-21T07:05:18.969Z,14.5
2023-05-21T07:06:25.550Z,14.5
2023-05-21T07:07:32.616Z,14.5
2023-05-21T07:08:39.725Z,14.6
2023-05-21T07:09:46.875Z,14.8
2023-05-21T07:10:53.966Z,14.9
2023-05-21T07:12:00.524Z,15
2023-05-21T07:13:07.644Z,15.1
2023-05-21T07:14:14.824Z,15.2
2023-05-21T07:15:21.849Z,15.3
2023-05-21T07:16:28.528Z,15.3
2023-05-21T07:17:35.580Z,15.4
2023-05-21T07:18:42.641Z,15.5
2023-05-21T07:19:49.765Z,15.4
2023-05-21T07:20:56.848Z,15.5
2023-05-21T07:22:03.425Z,15.5
2023-05-21T07:23:10.540Z,15.7
2023-05-21T07:24:18.197Z,15.7
2023-05-21T07:25:24.740Z,15.7
2023-05-21T07:26:32.377Z,15.7
2023-05-21T07:27:38.991Z,15.8
2023-05-21T07:28:45.587Z,15.8
2023-05-21T07:29:52.712Z,15.9
2023-05-21T07:30:59.824Z,16.1
2023-05-21T07:32:06.866Z,16.2
2023-05-21T07:33:13.425Z,16.2
2023-05-21T07:34:20.523Z,16.3
2023-05-21T07:35:27.662Z,16.4
2023-05-21T07:36:34.826Z,16.4
2023-05-21T07:37:41.965Z,16.3
2023-05-21T07:38:48.449Z,16.4
2023-05-21T07:39:55.549Z,16.4
2023-05-21T07:41:02.632Z,16.4
2023-05-21T07:42:09.783Z,16.5
2023-05-21T07:43:16.872Z,16.4
2023-05-21T07:44:23.501Z,16.4
2023-05-21T07:45:30.568Z,16.5
2023-05-21T07:46:37.739Z,16.6
2023-05-21T07:47:44.845Z,16.7
2023-05-21T07:48:51.851Z,16.7
2023-05-21T07:49:58.536Z,16.7
2023-05-21T07:51:05.583Z,16.8
2023-05-21T07:52:12.698Z,16.7
2023-05-21T07:53:19.830Z,16.8
2023-05-21T07:54:26.931Z,16.8
2023-05-21T07:55:33.466Z,16.8
2023-05-21T07:56:40.562Z,16.9
2023-05-21T07:57:47.691Z,16.9
2023-05-21T07:58:54.814Z,16.9
2023-05-21T08:00:01.955Z,17
2023-05-21T08:01:08.532Z,17
2023-05-21T08:02:15.561Z,17.1
2023-05-21T08:03:22.863Z,17.2
2023-05-21T08:04:29.915Z,17.2
2023-05-21T08:05:37.161Z,17
2023-05-21T08:06:43.570Z,17
2023-05-21T08:07:50.589Z,17
2023-05-21T08:08:57.732Z,17
2023-05-21T08:10:04.879Z,17.1
2023-05-21T08:12:18.540Z,17
2023-05-21T08:13:25.707Z,17.1
2023-05-21T08:14:32.764Z,17.1
2023-05-21T08:15:39.820Z,17.2
2023-05-21T08:16:46.510Z,17.2
2023-05-21T08:17:53.520Z,17.2
2023-05-21T08:19:00.776Z,17.2
2023-05-21T08:20:07.724Z,17.2
2023-05-21T08:21:14.906Z,17.2
2023-05-21T08:22:21.413Z,17.3
2023-05-21T08:23:28.552Z,17.4
2023-05-21T08:24:35.700Z,17.3
2023-05-21T08:25:42.754Z,17.3
2023-05-21T08:26:49.855Z,17.2
2023-05-21T08:27:56.391Z,17.1
2023-05-21T08:29:03.566Z,17
2023-05-21T08:30:11.176Z,16.9
2023-05-21T08:31:17.787Z,16.7
2023-05-21T08:32:24.895Z,16.7
2023-05-21T08:33:31.453Z,16.7
2023-05-21T08:34:38.572Z,16.7
2023-05-21T08:35:45.635Z,16.7
2023-05-21T08:36:52.707Z,16.5
2023-05-21T08:37:59.848Z,16.4
2023-05-21T08:39:06.514Z,16.4
2023-05-21T08:40:16.586Z,16.4
2023-05-21T08:41:20.622Z,16.3
2023-05-21T08:42:36.365Z,16.3
2023-05-21T08:43:34.857Z,16.3
2023-05-21T08:44:41.469Z,16.3
2023-05-21T08:45:48.589Z,16.3
2023-05-21T08:46:55.685Z,16.3
2023-05-21T08:48:02.764Z,16.3
2023-05-21T08:49:09.867Z,16.4
2023-05-21T08:50:16.470Z,16.5
2023-05-21T08:51:23.567Z,16.5
2023-05-21T08:52:31.168Z,16.4
2023-05-21T08:53:37.811Z,16.4
2023-05-21T08:54:44.912Z,16.2
2023-05-21T08:55:51.798Z,16.2
2023-05-21T08:56:58.560Z,16.2
2023-05-21T08:58:05.650Z,16.3
2023-05-21T08:59:12.766Z,16.3
2023-05-21T09:00:19.929Z,16.3
2023-05-21T09:01:26.832Z,16.3
2023-05-21T09:02:33.620Z,16.3
2023-05-21T09:03:40.723Z,16.3
2023-05-21T09:04:47.877Z,16.3
2023-05-21T09:05:54.903Z,16.3
2023-05-21T09:07:01.457Z,16.3
2023-05-21T09:08:08.598Z,16.3
2023-05-21T09:09:15.716Z,16.3
2023-05-21T09:10:22.826Z,16.4
2023-05-21T09:11:29.383Z,16.4
2023-05-21T09:12:36.513Z,16.3
2023-05-21T09:13:43.578Z,16.2
2023-05-21T09:14:50.688Z,16.1
2023-05-21T09:15:57.761Z,16
2023-05-21T09:17:05.041Z,15.9
2023-05-21T09:18:11.504Z,15.9
2023-05-21T09:19:18.642Z,15.9
2023-05-21T09:20:25.685Z,15.8
2023-05-21T09:21:32.790Z,15.7
2023-05-21T09:22:39.394Z,15.7
2023-05-21T09:23:46.504Z,15.6
2023-05-21T09:24:53.625Z,15.6
2023-05-21T09:26:00.754Z,15.6
2023-05-21T09:27:07.853Z,15.6
2023-05-21T09:28:14.365Z,15.6
2023-05-21T09:29:21.497Z,15.6
2023-05-21T09:30:30.179Z,15.5
2023-05-21T09:31:35.773Z,15.4
2023-05-21T09:32:42.836Z,15.5
2023-05-21T09:33:50.411Z,15.5
2023-05-21T09:34:56.539Z,15.6
2023-05-21T09:36:03.607Z,15.6
2023-05-21T09:37:19.959Z,15.7
2023-05-21T09:38:17.827Z,15.8
2023-05-21T09:39:24.406Z,15.9
2023-05-21T09:40:31.545Z,15.9
2023-05-21T09:41:38.656Z,15.9
2023-05-21T09:42:45.754Z,15.9
2023-05-21T09:44:59.461Z,15.9
2023-05-21T09:46:06.572Z,15.9
2023-05-21T09:47:13.609Z,15.9
2023-05-21T09:48:20.723Z,15.8
2023-05-21T09:49:27.962Z,15.7
2023-05-21T09:50:34.411Z,15.6
2023-05-21T09:51:41.604Z,15.7
2023-05-21T09:52:48.658Z,15.7
2023-05-21T09:53:55.786Z,15.6
2023-05-21T09:55:02.902Z,15.5
2023-05-21T09:56:10.674Z,15.3
2023-05-21T09:57:16.556Z,15.2
2023-05-21T09:58:23.666Z,15.2
2023-05-21T09:59:30.739Z,15.1
2023-05-21T10:00:38.038Z,15.1
2023-05-21T10:01:44.459Z,15.1
2023-05-21T10:02:51.702Z,15.2
2023-05-21T10:03:58.810Z,15.3
2023-05-21T10:05:05.821Z,15.3
2023-05-21T10:06:12.328Z,15.3
2023-05-21T10:07:19.458Z,15.3
2023-05-21T10:08:26.550Z,15.3
2023-05-21T10:09:33.728Z,15.4
2023-05-21T10:10:40.784Z,15.4
2023-05-21T10:11:47.393Z,15.3
2023-05-21T10:12:54.472Z,15.2
2023-05-21T10:14:01.565Z,15.2
2023-05-21T10:15:08.706Z,15.2
2023-05-21T10:16:15.859Z,15.1
2023-05-21T10:17:22.359Z,15
2023-05-21T10:19:36.623Z,14.9
2023-05-21T10:20:43.678Z,14.9
2023-05-21T10:21:52.558Z,14.9
2023-05-21T10:22:57.396Z,15
2023-05-21T10:24:04.444Z,15
2023-05-21T10:25:11.609Z,15
2023-05-21T10:26:18.728Z,15.1
2023-05-21T10:27:25.810Z,15
2023-05-21T10:28:32.365Z,15
2023-05-21T10:29:39.562Z,15
2023-05-21T10:30:46.576Z,15
2023-05-21T10:31:53.691Z,14.9
2023-05-21T10:33:00.895Z,14.9
2023-05-21T10:34:07.393Z,14.9
2023-05-21T10:35:14.476Z,15
2023-05-21T10:36:21.602Z,15
2023-05-21T10:37:29.224Z,15
2023-05-21T10:38:35.801Z,15
2023-05-21T10:39:42.482Z,14.9
2023-05-21T10:40:49.574Z,14.9
2023-05-21T10:41:59.041Z,14.8
2023-05-21T10:43:03.696Z,14.7
2023-05-21T10:44:10.816Z,14.7
2023-05-21T10:45:17.382Z,14.6
2023-05-21T10:46:24.483Z,14.6
2023-05-21T10:47:31.621Z,14.6
2023-05-21T10:48:38.749Z,14.6
2023-05-21T10:49:45.834Z,14.6
2023-05-21T10:50:52.425Z,14.6
2023-05-21T10:51:59.499Z,14.6
2023-05-21T10:53:08.039Z,14.7
2023-05-21T10:54:13.730Z,14.7
2023-05-21T10:55:20.925Z,14.8
2023-05-21T10:56:27.463Z,14.9
2023-05-21T10:57:34.536Z,14.9
2023-05-21T10:58:41.632Z,14.8
2023-05-21T10:59:48.768Z,14.8
2023-05-21T11:00:55.338Z,14.8
2023-05-21T11:02:02.467Z,14.7
2023-05-21T11:03:09.599Z,14.7
2023-05-21T11:04:16.649Z,14.7
2023-05-21T11:05:23.700Z,14.7
2023-05-21T11:06:30.323Z,14.6
2023-05-21T11:07:37.462Z,14.5
2023-05-21T11:08:44.501Z,14.4
2023-05-21T11:09:51.650Z,14.3
2023-05-21T11:10:58.798Z,14.2
2023-05-21T11:12:05.319Z,14.1
2023-05-21T11:13:12.417Z,14
2023-05-21T11:14:20.883Z,13.9
2023-05-21T11:15:26.680Z,13.9
2023-05-21T11:16:33.775Z,14
2023-05-21T11:17:40.437Z,14
2023-05-21T11:18:47.574Z,13.9
2023-05-21T11:19:54.589Z,13.9
2023-05-21T11:21:01.637Z,13.9
2023-05-21T11:22:08.785Z,13.9
2023-05-21T11:23:15.414Z,14
2023-05-21T11:24:22.481Z,14
2023-05-21T11:25:29.599Z,14
2023-05-21T11:26:36.689Z,14.1
2023-05-21T11:27:43.854Z,14.2
2023-05-21T11:28:50.340Z,14.2
2023-05-21T11:29:57.479Z,14.2
2023-05-21T11:31:04.553Z,14.1
2023-05-21T11:32:11.676Z,14
2023-05-21T11:33:18.782Z,14
2023-05-21T11:34:25.456Z,14
2023-05-21T11:35:32.457Z,14
2023-05-21T11:36:39.594Z,14
2023-05-21T11:37:46.717Z,14
2023-05-21T11:38:53.807Z,14
2023-05-21T11:40:01.301Z,14
2023-05-21T11:41:08.010Z,14
2023-05-21T11:42:14.568Z,14
2023-05-21T11:43:21.665Z,14
2023-05-21T11:44:28.796Z,14
2023-05-21T11:45:35.383Z,14
2023-05-21T11:46:42.559Z,14.1
2023-05-21T11:47:49.781Z,14
2023-05-21T11:48:56.700Z,14
2023-05-21T11:50:03.768Z,14
2023-05-21T11:51:10.348Z,14
2023-05-21T11:52:17.518Z,13.9
2023-05-21T11:53:24.696Z,13.9
2023-05-21T11:54:31.704Z,13.8
2023-05-21T11:55:38.883Z,13.8
2023-05-21T11:56:45.410Z,13.7
2023-05-21T11:57:52.514Z,13.7
2023-05-21T11:58:59.611Z,13.7
2023-05-21T12:00:06.708Z,13.7
2023-05-21T12:01:13.816Z,13.7
2023-05-21T12:02:20.386Z,13.7
2023-05-21T12:03:27.707Z,13.8
2023-05-21T12:04:34.616Z,13.8
2023-05-21T12:05:41.746Z,13.8
2023-05-21T12:06:48.858Z,13.8
2023-05-21T12:07:55.482Z,13.8
2023-05-21T12:09:02.510Z,13.9
2023-05-21T12:10:09.769Z,13.8
2023-05-21T12:11:16.763Z,13.9
2023-05-21T12:12:23.827Z,13.8
2023-05-21T12:13:30.403Z,13.8
2023-05-21T12:14:37.519Z,13.9
2023-05-21T12:15:44.635Z,14
2023-05-21T12:16:51.839Z,14
2023-05-21T12:17:58.906Z,14.1
2023-05-21T12:19:05.567Z,14.1
2023-05-21T12:20:12.545Z,14.2
2023-05-21T12:21:19.679Z,14.2
2023-05-21T12:22:26.749Z,14.2
2023-05-21T12:23:33.813Z,14.2
2023-05-21T12:24:40.412Z,14.2
2023-05-21T12:26:54.704Z,14.3
2023-05-21T12:28:01.741Z,14.3
2023-05-21T12:29:08.330Z,14.4
2023-05-21T12:30:15.636Z,14.4
2023-05-21T12:31:22.609Z,14.5
2023-05-21T12:32:29.686Z,14.5
2023-05-21T12:33:36.773Z,14.5
2023-05-21T12:34:43.326Z,14.5
2023-05-21T12:35:50.674Z,14.5
2023-05-21T12:36:57.572Z,14.5
2023-05-21T12:38:04.713Z,14.6
2023-05-21T12:39:11.739Z,14.6
2023-05-21T12:40:18.410Z,14.6
2023-05-21T12:41:25.446Z,14.7
2023-05-21T12:42:32.531Z,14.7
2023-05-21T12:43:39.678Z,14.8
2023-05-21T12:44:47.332Z,14.9
2023-05-21T12:45:53.439Z,14.8
2023-05-21T12:47:00.464Z,14.8
2023-05-21T12:48:07.633Z,14.8
2023-05-21T12:49:14.688Z,14.9
2023-05-21T12:50:21.760Z,14.9
2023-05-21T12:51:28.419Z,14.9
2023-05-21T12:52:35.510Z,14.9
2023-05-21T12:53:42.594Z,14.8
2023-05-21T12:54:49.705Z,14.8
2023-05-21T12:55:56.788Z,14.7
2023-05-21T12:57:03.380Z,14.7
2023-05-21T12:58:10.441Z,14.7
2023-05-21T12:59:17.584Z,14.7
2023-05-21T13:00:24.738Z,14.7
2023-05-21T13:01:31.885Z,14.7
2023-05-21T13:02:38.562Z,14.7
2023-05-21T13:03:45.557Z,14.7
2023-05-21T13:04:52.578Z,14.7
2023-05-21T13:05:59.735Z,14.7
2023-05-21T13:07:06.879Z,14.8
2023-05-21T13:08:13.408Z,14.9
2023-05-21T13:09:20.455Z,15
2023-05-21T13:10:27.588Z,15.1
2023-05-21T13:11:34.756Z,15.2
2023-05-21T13:12:44.103Z,15.1
2023-05-21T13:13:48.404Z,15.1
2023-05-21T13:14:55.517Z,15.2
2023-05-21T13:16:02.652Z,15.1
2023-05-21T13:18:16.961Z,15
2023-05-21T13:19:23.469Z,14.9
2023-05-21T13:20:30.545Z,14.9
2023-05-21T13:21:37.620Z,14.9
2023-05-21T13:22:44.780Z,14.9
2023-05-21T13:23:51.815Z,14.9
2023-05-21T13:24:58.431Z,14.9
2023-05-21T13:26:05.546Z,14.9
2023-05-21T13:27:12.611Z,14.9
2023-05-21T13:28:19.738Z,15
2023-05-21T13:30:33.387Z,15
2023-05-21T13:31:40.538Z,15.1
2023-05-21T13:32:47.794Z,15.2
2023-05-21T13:33:54.831Z,15.2
2023-05-21T13:35:01.308Z,15.2
2023-05-21T13:36:10.887Z,15.2
2023-05-21T13:37:15.580Z,15.2
2023-05-21T13:38:22.633Z,15.1
2023-05-21T13:39:29.768Z,15.1
2023-05-21T13:40:38.892Z,15.1
2023-05-21T13:41:43.413Z,15.1
2023-05-21T13:42:50.540Z,15.2
2023-05-21T13:43:57.643Z,15.2
2023-05-21T13:45:04.778Z,15.2
2023-05-21T13:46:11.320Z,15.2
2023-05-21T13:47:18.474Z,15.2
2023-05-21T13:48:26.101Z,15.2
2023-05-21T13:49:32.612Z,15.1
2023-05-21T13:50:39.770Z,15.1
2023-05-21T13:51:46.411Z,15
2023-05-21T13:52:53.435Z,15
2023-05-21T13:54:00.539Z,15
2023-05-21T13:55:07.689Z,15
2023-05-21T13:56:14.832Z,15
2023-05-21T13:57:21.370Z,15
2023-05-21T13:58:28.487Z,14.9
2023-05-21T13:59:35.570Z,14.9
2023-05-21T14:00:42.709Z,14.9
2023-05-21T14:01:49.893Z,14.8
2023-05-21T14:02:56.499Z,14.7
2023-05-21T14:04:03.472Z,14.7
2023-05-21T14:05:10.645Z,14.8
2023-05-21T14:06:17.724Z,14.8
2023-05-21T14:07:24.835Z,14.8
2023-05-21T14:08:31.378Z,14.8
2023-05-21T14:09:38.526Z,14.8
2023-05-21T14:10:45.575Z,14.8
2023-05-21T14:11:52.692Z,14.9
2023-05-21T14:13:11.207Z,14.9
2023-05-21T14:14:06.433Z,14.9
2023-05-21T14:15:13.502Z,14.8
2023-05-21T14:16:20.648Z,14.9
2023-05-21T14:17:27.754Z,14.9
2023-05-21T14:18:34.797Z,14.9
2023-05-21T14:19:41.465Z,14.8
2023-05-21T14:20:48.497Z,14.8
2023-05-21T14:21:55.620Z,14.7
2023-05-21T14:23:02.707Z,14.7
2023-05-21T14:24:09.800Z,14.7
2023-05-21T14:25:16.393Z,14.7
2023-05-21T14:26:23.489Z,14.6
2023-05-21T14:27:30.613Z,14.6
2023-05-21T14:28:37.764Z,14.6
2023-05-21T14:29:44.857Z,14.6
2023-05-21T14:30:51.379Z,14.5
2023-05-21T14:31:58.587Z,14.6
2023-05-21T14:34:12.727Z,14.5
2023-05-21T14:35:19.350Z,14.5
2023-05-21T14:36:26.430Z,14.5
2023-05-21T14:37:33.495Z,14.5
2023-05-21T14:38:40.597Z,14.6
2023-05-21T14:39:47.739Z,14.6
2023-05-21T14:40:54.310Z,14.7
2023-05-21T14:42:01.437Z,14.7
2023-05-21T14:43:08.533Z,14.7
2023-05-21T14:44:15.657Z,14.7
2023-05-21T14:46:29.314Z,14.7
2023-05-21T14:47:36.516Z,14.7
2023-05-21T14:48:43.497Z,14.8
2023-05-21T14:49:51.652Z,14.8
2023-05-21T14:50:57.789Z,14.8
2023-05-21T14:52:05.353Z,14.8
2023-05-21T14:53:11.441Z,14.8
2023-05-21T14:54:18.576Z,14.7
2023-05-21T14:55:25.724Z,14.7
2023-05-21T14:56:32.716Z,14.8
2023-05-21T14:57:39.360Z,14.9
2023-05-21T14:58:46.461Z,14.9
2023-05-21T14:59:53.525Z,14.9
2023-05-21T15:01:00.707Z,14.9
2023-05-21T15:02:07.757Z,14.9
2023-05-21T15:03:14.428Z,14.7
2023-05-21T15:04:21.478Z,14.7
2023-05-21T15:05:28.787Z,14.7
2023-05-21T15:06:35.651Z,14.6
2023-05-21T15:07:42.717Z,14.5
2023-05-21T15:08:49.380Z,14.6
2023-05-21T15:09:56.464Z,14.6
2023-05-21T15:11:03.558Z,14.6
2023-05-21T15:12:10.646Z,14.5
2023-05-21T15:13:17.775Z,14.4
2023-05-21T15:14:24.339Z,14.4
2023-05-21T15:15:31.479Z,14.4
2023-05-21T15:16:38.678Z,14.4
2023-05-21T15:17:45.699Z,14.4
2023-05-21T15:18:52.925Z,14.4
2023-05-21T15:19:59.385Z,14.5
2023-05-21T15:21:06.466Z,14.5
2023-05-21T15:22:13.574Z,14.6
2023-05-21T15:23:20.656Z,14.7
2023-05-21T15:24:27.817Z,14.7
2023-05-21T15:25:34.562Z,14.7